createdAt,value
2023-03-08T00:02:17.188Z,-1.30
2023-03-08T00:04:44.363Z,-1.23
2023-03-08T00:07:11.645Z,-1.22
2023-03-08T00:09:38.824Z,-1.19
2023-03-08T00:12:07.362Z,-1.18
2023-03-08T00:14:34.408Z,-1.20
2023-03-08T00:17:02.609Z,-1.27
2023-03-08T00:19:29.983Z,-1.14
2023-03-08T00:21:58.542Z,-1.20
2023-03-08T00:24:25.624Z,-1.12
2023-03-08T00:26:52.722Z,-1.11
2023-03-08T00:29:19.807Z,-1.23
2023-03-08T00:31:47.075Z,-1.11
2023-03-08T00:34:14.491Z,-1.11
2023-03-08T00:36:41.738Z,-1.15
2023-03-08T00:39:09.947Z,-1.14
2023-03-08T00:41:37.533Z,-1.17
2023-03-08T00:44:04.666Z,-1.12
2023-03-08T00:46:31.944Z,-1.17
2023-03-08T00:48:59.865Z,-1.21
2023-03-08T00:51:27.432Z,-1.15
2023-03-08T00:53:54.571Z,-1.23
2023-03-08T00:56:22.118Z,-1.13
2023-03-08T00:58:49.205Z,-1.23
2023-03-08T01:01:18.462Z,-1.14
2023-03-08T01:03:45.753Z,-1.21
2023-03-08T01:06:14.822Z,-1.16
2023-03-08T01:08:42.291Z,-1.30
2023-03-08T01:11:25.436Z,-1.14
2023-03-08T01:13:53.610Z,-1.16
2023-03-08T01:16:27.428Z,-1.16
2023-03-08T01:18:55.546Z,-1.19
2023-03-08T01:21:24.113Z,-1.21
2023-03-08T01:23:51.256Z,-1.22
2023-03-08T01:26:20.929Z,-1.23
2023-03-08T01:28:48.876Z,-1.32
2023-03-08T01:31:28.960Z,-1.31
2023-03-08T01:33:57.965Z,-1.26
2023-03-08T01:36:27.872Z,-1.28
2023-03-08T01:38:55.461Z,-1.36
2023-03-08T01:41:29.041Z,-1.30
2023-03-08T01:43:56.189Z,-1.29
2023-03-08T01:46:23.127Z,-1.30
2023-03-08T01:48:55.745Z,-1.31
2023-03-08T01:51:31.244Z,-1.31
2023-03-08T01:54:02.015Z,-1.33
2023-03-08T01:56:29.466Z,-1.37
2023-03-08T01:58:58.016Z,-1.37
2023-03-08T02:01:25.093Z,-1.37
2023-03-08T02:03:52.317Z,-1.37
2023-03-08T02:06:20.653Z,-1.39
2023-03-08T02:08:47.982Z,-1.42
2023-03-08T02:11:17.275Z,-1.39
2023-03-08T02:13:44.703Z,-1.37
2023-03-08T02:16:14.750Z,-1.45
2023-03-08T02:18:57.582Z,-1.46
2023-03-08T02:21:26.315Z,-1.44
2023-03-08T02:23:53.869Z,-1.46
2023-03-08T02:26:21.224Z,-1.46
2023-03-08T02:28:48.502Z,-1.47
2023-03-08T02:31:15.828Z,-1.51
2023-03-08T02:33:42.879Z,-1.52
2023-03-08T02:36:10.789Z,-1.57
2023-03-08T02:38:38.011Z,-1.55
2023-03-08T02:41:05.342Z,-1.53
2023-03-08T02:43:32.433Z,-1.56
2023-03-08T02:45:59.474Z,-1.54
2023-03-08T02:48:26.546Z,-1.58
2023-03-08T02:50:53.567Z,-1.64
2023-03-08T02:53:20.645Z,-1.68
2023-03-08T02:55:47.797Z,-1.64
2023-03-08T02:58:14.963Z,-1.62
2023-03-08T03:00:42.015Z,-1.60
2023-03-08T03:03:09.086Z,-1.57
2023-03-08T03:05:41.172Z,-1.60
2023-03-08T03:08:08.409Z,-1.63
2023-03-08T03:10:36.668Z,-1.63
2023-03-08T03:13:04.967Z,-1.61
2023-03-08T03:15:32.066Z,-1.59
2023-03-08T03:18:00.152Z,-1.60
2023-03-08T03:20:27.533Z,-1.60
2023-03-08T03:22:54.622Z,-1.59
2023-03-08T03:25:21.675Z,-1.60
2023-03-08T03:27:48.798Z,-1.64
2023-03-08T03:30:15.951Z,-1.65
2023-03-08T03:32:43.184Z,-1.65
2023-03-08T03:35:10.344Z,-1.72
2023-03-08T03:37:37.499Z,-1.69
2023-03-08T03:40:05.894Z,-1.66
2023-03-08T03:42:32.940Z,-1.63
2023-03-08T03:44:59.998Z,-1.60
2023-03-08T03:47:27.834Z,-1.66
2023-03-08T03:49:54.899Z,-1.56
2023-03-08T03:52:21.979Z,-1.50
2023-03-08T03:54:49.055Z,-1.43
2023-03-08T03:57:16.057Z,-1.37
2023-03-08T03:59:43.095Z,-1.33
2023-03-08T04:02:11.062Z,-1.31
2023-03-08T04:04:38.122Z,-1.30
2023-03-08T04:07:05.219Z,-1.31
2023-03-08T04:09:32.329Z,-1.39
2023-03-08T04:12:02.564Z,-1.25
2023-03-08T04:14:29.644Z,-1.19
2023-03-08T04:16:56.713Z,-1.15
2023-03-08T04:19:23.846Z,-1.16
2023-03-08T04:21:51.314Z,-1.32
2023-03-08T04:24:18.393Z,-1.31
2023-03-08T04:26:45.526Z,-1.31
2023-03-08T04:29:12.601Z,-1.27
2023-03-08T04:31:39.671Z,-1.24
2023-03-08T04:34:07.053Z,-1.29
2023-03-08T04:36:34.271Z,-1.19
2023-03-08T04:39:01.440Z,-1.23
2023-03-08T04:41:29.491Z,-1.19
2023-03-08T04:43:58.640Z,-1.20
2023-03-08T04:46:28.635Z,-1.18
2023-03-08T04:48:56.163Z,-1.15
2023-03-08T04:51:27.649Z,-1.22
2023-03-08T04:53:54.969Z,-1.20
2023-03-08T04:56:22.016Z,-1.19
2023-03-08T04:58:49.504Z,-1.18
2023-03-08T05:01:22.349Z,-1.20
2023-03-08T05:03:49.871Z,-1.26
2023-03-08T05:06:17.502Z,-1.23
2023-03-08T05:08:44.965Z,-1.31
2023-03-08T05:11:21.243Z,-1.20
2023-03-08T05:13:49.408Z,-1.19
2023-03-08T05:16:16.876Z,-1.18
2023-03-08T05:18:44.532Z,-1.26
2023-03-08T05:21:15.297Z,-1.25
2023-03-08T05:23:42.561Z,-1.23
2023-03-08T05:26:15.257Z,-1.21
2023-03-08T05:28:43.355Z,-1.30
2023-03-08T05:31:16.526Z,-1.22
2023-03-08T05:33:46.551Z,-1.24
2023-03-08T05:36:14.914Z,-1.24
2023-03-08T05:38:43.061Z,-1.34
2023-03-08T05:41:14.118Z,-1.23
2023-03-08T05:43:41.727Z,-1.23
2023-03-08T05:46:12.230Z,-1.24
2023-03-08T05:48:39.816Z,-1.23
2023-03-08T05:51:09.099Z,-1.29
2023-03-08T05:53:36.782Z,-1.25
2023-03-08T05:56:30.119Z,-1.25
2023-03-08T05:58:57.376Z,-1.24
2023-03-08T06:01:27.371Z,-1.26
2023-03-08T06:03:58.365Z,-1.24
2023-03-08T06:06:28.491Z,-1.21
2023-03-08T06:08:56.319Z,-1.22
2023-03-08T06:11:24.813Z,-1.24
2023-03-08T06:13:51.982Z,-1.24
2023-03-08T06:16:19.159Z,-1.21
2023-03-08T06:18:46.304Z,-1.18
2023-03-08T06:21:18.584Z,-1.18
2023-03-08T06:23:46.160Z,-1.26
2023-03-08T06:26:14.448Z,-1.14
2023-03-08T06:28:41.934Z,-1.15
2023-03-08T06:31:12.808Z,-1.20
2023-03-08T06:33:40.096Z,-1.18
2023-03-08T06:36:13.911Z,-1.23
2023-03-08T06:38:41.556Z,-1.12
2023-03-08T06:41:10.821Z,-1.10
2023-03-08T06:43:38.090Z,-1.14
2023-03-08T06:46:06.734Z,-1.10
2023-03-08T06:48:35.119Z,-1.13
2023-03-08T06:51:05.773Z,-1.14
2023-03-08T06:53:36.006Z,-1.11
2023-03-08T06:56:03.908Z,-1.09
2023-03-08T06:58:31.843Z,-1.07
2023-03-08T07:01:04.354Z,-1.05
2023-03-08T07:03:32.778Z,-1.06
2023-03-08T07:06:08.057Z,-1.08
2023-03-08T07:08:36.225Z,-1.03
2023-03-08T07:11:03.727Z,-1.00
2023-03-08T07:13:30.824Z,-1.01
2023-03-08T07:15:58.957Z,-1.00
2023-03-08T07:18:26.030Z,-0.97
2023-03-08T07:20:53.910Z,-0.85
2023-03-08T07:23:20.975Z,-0.76
2023-03-08T07:25:48.011Z,-0.72
2023-03-08T07:28:15.038Z,-0.64
2023-03-08T07:30:49.516Z,-0.65
2023-03-08T07:33:17.388Z,-0.51
2023-03-08T07:35:44.529Z,-0.49
2023-03-08T07:38:14.509Z,-0.45
2023-03-08T07:40:41.950Z,-0.38
2023-03-08T07:43:09.505Z,-0.41
2023-03-08T07:45:39.586Z,-0.28
2023-03-08T07:48:06.837Z,-0.21
2023-03-08T07:50:34.035Z,-0.32
2023-03-08T07:53:01.474Z,-0.25
2023-03-08T07:55:28.718Z,-0.24
2023-03-08T07:57:55.861Z,-0.26
2023-03-08T08:00:23.180Z,-0.31
2023-03-08T08:02:53.914Z,-0.17
2023-03-08T08:05:24.437Z,-0.28
2023-03-08T08:07:51.662Z,-0.14
2023-03-08T08:10:18.767Z,-0.14
2023-03-08T08:12:45.823Z,-0.07
2023-03-08T08:15:13.076Z,-0.02
2023-03-08T08:17:40.226Z,-0.03
2023-03-08T08:20:10.435Z,0.05
2023-03-08T08:22:37.573Z,0.10
2023-03-08T08:25:06.636Z,0.19
2023-03-08T08:27:36.615Z,0.20
2023-03-08T08:30:05.370Z,0.28
2023-03-08T08:32:34.524Z,0.40
2023-03-08T08:35:01.643Z,0.38
2023-03-08T08:37:30.273Z,0.38
2023-03-08T08:39:58.162Z,0.38
2023-03-08T08:42:25.989Z,0.38
2023-03-08T08:44:53.851Z,0.35
2023-03-08T08:47:21.332Z,0.30
2023-03-08T08:49:48.952Z,0.27
2023-03-08T08:52:16.065Z,0.31
2023-03-08T08:54:43.199Z,0.29
2023-03-08T08:57:10.288Z,0.35
2023-03-08T08:59:37.624Z,0.31
2023-03-08T09:02:05.573Z,0.33
2023-03-08T09:04:32.891Z,0.31
2023-03-08T09:06:59.945Z,0.35
2023-03-08T09:09:27.168Z,0.31
2023-03-08T09:11:55.917Z,0.29
2023-03-08T09:14:24.041Z,0.29
2023-03-08T09:16:52.556Z,0.34
2023-03-08T09:19:19.898Z,0.33
2023-03-08T09:21:46.952Z,0.39
2023-03-08T09:24:14.792Z,0.49
2023-03-08T09:26:41.873Z,0.47
2023-03-08T09:29:10.593Z,0.50
2023-03-08T09:31:38.867Z,0.54
2023-03-08T09:34:09.325Z,0.56
2023-03-08T09:36:39.529Z,0.61
2023-03-08T09:39:09.292Z,0.62
2023-03-08T09:41:48.229Z,0.67
2023-03-08T09:44:47.776Z,0.82
2023-03-08T09:47:27.219Z,0.84
2023-03-08T09:49:58.864Z,0.91
2023-03-08T09:52:51.987Z,1.03
2023-03-08T09:55:32.329Z,1.08
2023-03-08T09:58:11.984Z,1.15
2023-03-08T10:00:39.120Z,1.28
2023-03-08T10:03:24.997Z,1.41
2023-03-08T10:06:12.359Z,1.53
2023-03-08T10:08:46.750Z,1.54
2023-03-08T10:11:23.829Z,1.68
2023-03-08T10:13:55.130Z,1.77
2023-03-08T10:16:25.919Z,1.92
2023-03-08T10:18:57.426Z,1.99
2023-03-08T10:21:26.004Z,2.18
2023-03-08T10:24:27.428Z,2.25
2023-03-08T10:27:00.892Z,2.27
2023-03-08T10:29:28.417Z,2.38
2023-03-08T10:31:55.454Z,2.40
2023-03-08T10:34:30.042Z,2.44
2023-03-08T10:37:01.059Z,2.39
2023-03-08T10:39:28.590Z,2.44
2023-03-08T10:42:01.749Z,2.52
2023-03-08T10:44:58.441Z,2.52
2023-03-08T10:47:27.407Z,2.58
2023-03-08T10:50:09.422Z,2.74
2023-03-08T10:52:36.525Z,2.84
2023-03-08T10:55:12.635Z,2.90
2023-03-08T10:57:41.872Z,2.75
2023-03-08T11:00:20.873Z,2.74
2023-03-08T11:02:48.569Z,2.74
2023-03-08T11:05:26.824Z,2.95
2023-03-08T11:07:57.437Z,3.05
2023-03-08T11:10:31.626Z,3.24
2023-03-08T11:13:17.194Z,3.32
2023-03-08T11:15:51.101Z,3.24
2023-03-08T11:19:00.657Z,3.29
2023-03-08T11:21:48.837Z,3.43
2023-03-08T11:24:39.838Z,3.47
2023-03-08T11:27:21.727Z,3.42
2023-03-08T11:30:12.674Z,3.43
2023-03-08T11:33:17.695Z,3.41
2023-03-08T11:36:03.579Z,3.36
2023-03-08T11:38:32.766Z,3.34
2023-03-08T11:41:22.389Z,3.30
2023-03-08T11:44:10.498Z,3.25
2023-03-08T11:46:51.763Z,3.24
2023-03-08T11:49:18.870Z,3.10
2023-03-08T11:51:51.477Z,3.10
2023-03-08T11:54:30.560Z,3.04
2023-03-08T11:57:02.461Z,3.11
2023-03-08T11:59:40.053Z,3.21
2023-03-08T12:02:07.046Z,3.22
2023-03-08T12:04:40.598Z,3.25
2023-03-08T12:07:13.356Z,3.36
2023-03-08T12:10:04.283Z,3.37
2023-03-08T12:12:37.503Z,3.34
2023-03-08T12:15:39.733Z,3.32
2023-03-08T12:18:23.013Z,3.37
2023-03-08T12:20:54.810Z,3.36
2023-03-08T12:23:36.518Z,3.38
2023-03-08T12:26:17.478Z,3.26
2023-03-08T12:28:54.131Z,3.16
2023-03-08T12:31:27.947Z,3.18
2023-03-08T12:33:58.653Z,3.16
2023-03-08T12:36:40.497Z,3.20
2023-03-08T12:39:25.402Z,3.17
2023-03-08T12:42:01.720Z,3.00
2023-03-08T12:44:31.055Z,3.03
2023-03-08T12:47:04.183Z,2.97
2023-03-08T12:49:44.796Z,2.90
2023-03-08T12:52:17.598Z,2.94
2023-03-08T12:55:21.004Z,3.01
2023-03-08T12:57:47.992Z,3.03
2023-03-08T13:00:23.768Z,3.03
2023-03-08T13:03:12.157Z,3.07
2023-03-08T13:05:41.658Z,3.04
2023-03-08T13:08:19.382Z,3.02
2023-03-08T13:10:52.344Z,3.03
2023-03-08T13:13:38.099Z,2.91
2023-03-08T13:16:19.343Z,2.90
2023-03-08T13:18:48.983Z,2.97
2023-03-08T13:21:27.655Z,2.94
2023-03-08T13:24:19.392Z,3.00
2023-03-08T13:26:59.059Z,2.97
2023-03-08T13:29:31.931Z,2.91
2023-03-08T13:32:06.160Z,2.93
2023-03-08T13:34:35.133Z,3.00
2023-03-08T13:37:02.453Z,3.04
2023-03-08T13:39:30.859Z,3.08
2023-03-08T13:42:11.972Z,3.07
2023-03-08T13:44:39.098Z,3.10
2023-03-08T13:47:21.435Z,3.03
2023-03-08T13:49:51.838Z,2.99
2023-03-08T13:52:27.518Z,3.01
2023-03-08T13:55:01.262Z,2.99
2023-03-08T13:57:33.346Z,2.89
2023-03-08T14:00:02.860Z,2.81
2023-03-08T14:02:31.821Z,2.78
2023-03-08T14:04:59.388Z,2.66
2023-03-08T14:07:31.972Z,2.68
2023-03-08T14:09:59.474Z,2.56
2023-03-08T14:12:33.241Z,2.57
2023-03-08T14:15:03.644Z,2.57
2023-03-08T14:17:34.165Z,2.51
2023-03-08T14:20:07.110Z,2.64
2023-03-08T14:22:40.394Z,2.69
2023-03-08T14:25:22.200Z,2.68
2023-03-08T14:27:49.278Z,2.72
2023-03-08T14:30:23.485Z,2.82
2023-03-08T14:33:16.645Z,2.90
2023-03-08T14:35:51.872Z,2.83
2023-03-08T14:38:25.212Z,2.76
2023-03-08T14:40:52.810Z,2.80
2023-03-08T14:43:23.254Z,2.72
2023-03-08T14:46:00.001Z,2.81
2023-03-08T14:48:31.734Z,2.88
2023-03-08T14:51:05.001Z,2.96
2023-03-08T14:53:38.206Z,2.98
2023-03-08T14:56:11.421Z,2.98
2023-03-08T14:58:42.908Z,2.98
2023-03-08T15:01:09.985Z,2.97
2023-03-08T15:03:37.043Z,2.95
2023-03-08T15:06:19.692Z,3.02
2023-03-08T15:08:47.073Z,2.91
2023-03-08T15:11:14.741Z,2.92
2023-03-08T15:13:42.894Z,2.90
2023-03-08T15:16:12.063Z,2.90
2023-03-08T15:18:40.360Z,2.93
2023-03-08T15:21:10.731Z,2.94
2023-03-08T15:23:38.089Z,2.93
2023-03-08T15:26:06.825Z,2.84
2023-03-08T15:28:33.938Z,2.77
2023-03-08T15:31:01.218Z,2.81
2023-03-08T15:33:28.557Z,2.90
2023-03-08T15:35:55.771Z,2.91
2023-03-08T15:38:24.035Z,2.96
2023-03-08T15:40:51.107Z,2.92
2023-03-08T15:43:18.173Z,3.04
2023-03-08T15:45:45.344Z,2.99
2023-03-08T15:48:17.598Z,2.96
2023-03-08T15:50:45.396Z,2.98
2023-03-08T15:53:23.056Z,2.94
2023-03-08T15:55:57.112Z,2.93
2023-03-08T15:58:24.119Z,2.93
2023-03-08T16:00:52.204Z,2.84
2023-03-08T16:03:25.794Z,2.75
2023-03-08T16:05:53.098Z,2.74
2023-03-08T16:08:21.333Z,2.68
2023-03-08T16:10:48.410Z,2.66
2023-03-08T16:13:17.691Z,2.71
2023-03-08T16:15:45.399Z,2.67
2023-03-08T16:18:12.577Z,2.71
2023-03-08T16:20:40.649Z,2.71
2023-03-08T16:23:08.448Z,2.72
2023-03-08T16:25:35.582Z,2.71
2023-03-08T16:28:02.979Z,2.68
2023-03-08T16:30:31.020Z,2.66
2023-03-08T16:32:58.568Z,2.65
2023-03-08T16:35:25.628Z,2.53
2023-03-08T16:37:53.965Z,2.50
2023-03-08T16:40:21.032Z,2.48
2023-03-08T16:42:51.326Z,2.55
2023-03-08T16:45:18.440Z,2.42
2023-03-08T16:47:46.436Z,2.52
2023-03-08T16:50:14.133Z,2.49
2023-03-08T16:52:41.270Z,2.49
2023-03-08T16:55:08.754Z,2.44
2023-03-08T16:57:38.384Z,2.40
2023-03-08T17:00:07.164Z,2.35
2023-03-08T17:02:34.307Z,2.34
2023-03-08T17:05:01.562Z,2.32
2023-03-08T17:07:29.004Z,2.30
2023-03-08T17:09:57.295Z,2.31
2023-03-08T17:12:24.899Z,2.28
2023-03-08T17:14:52.308Z,2.27
2023-03-08T17:17:19.347Z,2.26
2023-03-08T17:19:46.494Z,2.19
2023-03-08T17:22:13.946Z,2.16
2023-03-08T17:24:41.028Z,2.14
2023-03-08T17:27:08.137Z,2.12
2023-03-08T17:29:35.628Z,2.05
2023-03-08T17:32:02.804Z,2.04
2023-03-08T17:34:29.805Z,1.99
2023-03-08T17:36:57.470Z,1.96
2023-03-08T17:39:24.474Z,1.94
2023-03-08T17:41:51.552Z,1.92
2023-03-08T17:44:18.661Z,1.81
2023-03-08T17:46:45.692Z,1.83
2023-03-08T17:49:13.988Z,1.75
2023-03-08T17:51:42.490Z,1.77
2023-03-08T17:54:11.676Z,1.77
2023-03-08T17:56:40.914Z,1.73
2023-03-08T17:59:08.037Z,1.73
2023-03-08T18:01:35.110Z,1.73
2023-03-08T18:04:04.842Z,1.70
2023-03-08T18:06:35.797Z,1.69
2023-03-08T18:09:06.805Z,1.61
2023-03-08T18:11:37.441Z,1.63
2023-03-08T18:14:10.414Z,1.57
2023-03-08T18:16:38.457Z,1.48
2023-03-08T18:19:06.503Z,1.50
2023-03-08T18:21:35.350Z,1.52
2023-03-08T18:24:02.888Z,1.47
2023-03-08T18:26:30.065Z,1.48
2023-03-08T18:28:57.187Z,1.42
2023-03-08T18:31:26.303Z,1.45
2023-03-08T18:33:55.182Z,1.39
2023-03-08T18:36:23.038Z,1.37
2023-03-08T18:38:50.407Z,1.34
2023-03-08T18:41:22.760Z,1.36
2023-03-08T18:43:51.001Z,1.36
2023-03-08T18:46:18.748Z,1.37
2023-03-08T18:48:50.743Z,1.38
2023-03-08T18:51:17.931Z,1.25
2023-03-08T18:53:45.060Z,1.33
2023-03-08T18:56:12.463Z,1.31
2023-03-08T18:58:39.824Z,1.32
2023-03-08T19:01:16.856Z,1.35
2023-03-08T19:03:44.939Z,1.29
2023-03-08T19:06:13.789Z,1.27
2023-03-08T19:08:41.289Z,1.30
2023-03-08T19:11:13.049Z,1.27
2023-03-08T19:13:40.797Z,1.30
2023-03-08T19:16:24.196Z,1.26
2023-03-08T19:18:59.052Z,1.25
2023-03-08T19:21:31.349Z,1.27
2023-03-08T19:23:59.324Z,1.27
2023-03-08T19:26:37.326Z,1.17
2023-03-08T19:29:16.099Z,1.23
2023-03-08T19:31:52.713Z,1.22
2023-03-08T19:34:22.389Z,1.23
2023-03-08T19:36:49.874Z,1.23
2023-03-08T19:39:23.251Z,1.20
2023-03-08T19:41:52.049Z,1.16
2023-03-08T19:44:19.949Z,1.21
2023-03-08T19:46:47.387Z,1.14
2023-03-08T19:49:19.710Z,1.22
2023-03-08T19:51:48.170Z,1.20
2023-03-08T19:54:15.449Z,1.23
2023-03-08T19:56:42.806Z,1.23
2023-03-08T19:59:10.663Z,1.15
2023-03-08T20:01:38.503Z,1.23
2023-03-08T20:04:06.383Z,1.17
2023-03-08T20:06:36.506Z,1.19
2023-03-08T20:09:05.220Z,1.21
2023-03-08T20:11:32.775Z,1.20
2023-03-08T20:14:00.111Z,1.20
2023-03-08T20:16:28.666Z,1.24
2023-03-08T20:18:57.571Z,1.23
2023-03-08T20:21:28.486Z,1.24
2023-03-08T20:23:56.556Z,1.25
2023-03-08T20:26:33.025Z,1.23
2023-03-08T20:29:00.884Z,1.23
2023-03-08T20:31:29.379Z,1.16
2023-03-08T20:33:56.503Z,1.23
2023-03-08T20:36:23.821Z,1.16
2023-03-08T20:38:51.210Z,1.15
2023-03-08T20:41:20.818Z,1.13
2023-03-08T20:43:49.766Z,1.12
2023-03-08T20:46:20.901Z,1.11
2023-03-08T20:48:48.098Z,1.08
2023-03-08T20:51:20.048Z,1.10
2023-03-08T20:53:52.346Z,1.05
2023-03-08T20:56:21.560Z,1.05
2023-03-08T20:58:48.686Z,1.03
2023-03-08T21:01:22.003Z,1.05
2023-03-08T21:03:49.166Z,1.03
2023-03-08T21:06:19.826Z,1.01
2023-03-08T21:08:48.212Z,0.98
2023-03-08T21:11:15.600Z,0.92
2023-03-08T21:13:43.349Z,0.96
2023-03-08T21:16:19.256Z,0.92
2023-03-08T21:18:54.782Z,0.94
2023-03-08T21:21:35.434Z,0.94
2023-03-08T21:24:14.688Z,0.96
2023-03-08T21:26:43.239Z,0.99
2023-03-08T21:29:16.202Z,1.00
2023-03-08T21:31:48.063Z,1.02
2023-03-08T21:34:15.522Z,1.01
2023-03-08T21:36:43.248Z,1.00
2023-03-08T21:39:11.821Z,1.00
2023-03-08T21:41:41.277Z,0.99
2023-03-08T21:44:12.591Z,0.97
2023-03-08T21:46:40.547Z,0.87
2023-03-08T21:49:11.434Z,0.91
2023-03-08T21:51:38.588Z,0.92
2023-03-08T21:54:06.048Z,0.81
2023-03-08T21:56:35.575Z,0.88
2023-03-08T21:59:03.441Z,0.78
2023-03-08T22:01:31.596Z,0.78
2023-03-08T22:04:00.701Z,0.77
2023-03-08T22:06:28.918Z,0.78
2023-03-08T22:08:56.212Z,0.81
2023-03-08T22:11:24.466Z,0.76
2023-03-08T22:13:59.042Z,0.75
2023-03-08T22:16:27.477Z,0.73
2023-03-08T22:18:57.473Z,0.70
2023-03-08T22:21:24.956Z,0.72
2023-03-08T22:23:53.609Z,0.68
2023-03-08T22:26:22.380Z,0.70
2023-03-08T22:28:49.601Z,0.70
2023-03-08T22:31:22.700Z,0.70
2023-03-08T22:33:50.543Z,0.67
2023-03-08T22:36:19.090Z,0.65
2023-03-08T22:38:46.616Z,0.61
2023-03-08T22:41:24.801Z,0.61
2023-03-08T22:43:52.892Z,0.61
2023-03-08T22:46:22.593Z,0.61
2023-03-08T22:48:51.044Z,0.63
2023-03-08T22:51:19.803Z,0.61
2023-03-08T22:53:47.153Z,0.61
2023-03-08T22:56:21.944Z,0.58
2023-03-08T22:58:49.799Z,0.60
2023-03-08T23:01:20.103Z,0.54
2023-03-08T23:03:49.484Z,0.59
2023-03-08T23:06:17.972Z,0.58
2023-03-08T23:08:45.984Z,0.58
2023-03-08T23:11:13.390Z,0.52
2023-03-08T23:13:41.230Z,0.43
2023-03-08T23:16:11.271Z,0.42
2023-03-08T23:18:38.547Z,0.36
2023-03-08T23:21:08.486Z,0.37
2023-03-08T23:23:35.640Z,0.39
2023-03-08T23:26:08.688Z,0.39
2023-03-08T23:28:36.382Z,0.34
2023-03-08T23:31:09.877Z,0.27
2023-03-08T23:33:37.056Z,0.34
2023-03-08T23:36:04.624Z,0.38
2023-03-08T23:38:32.920Z,0.35
2023-03-08T23:41:04.794Z,0.24
2023-03-08T23:43:32.570Z,0.27
2023-03-08T23:45:59.887Z,0.29
2023-03-08T23:48:27.123Z,0.27
2023-03-08T23:50:55.001Z,0.23
2023-03-08T23:53:22.060Z,0.28
2023-03-08T23:55:49.127Z,0.30
2023-03-08T23:58:16.205Z,0.28
